Midland, OR (97634)

4:01 PM PDT on April 24, 2017 (GMT -0700)
South Suburban | | Change Station

Elev 4121 ft 42.18 °N, 121.74 °W | Updated 45 seconds ago

Mostly Cloudy
Mostly Cloudy
47.0 °F
Feels Like 45 °F
N
4.0
Wind Variable Wind from West
Gusts 8.0 mph

Today
High -- | Low -- °F
--% Chance of Precip.
Yesterday
High -- | Low -- °F
Precip. -- in
Pressure 29.82 in
Visibility 10.0 miles
Clouds Scattered Clouds 5000 ft
Scattered Clouds 6000 ft
Mostly Cloudy 12000 ft
Windchill 45 °F
Dew Point 41 °F
Humidity 79%
Rainfall Not available.
Snow Depth Not available.
6:12 AM 7:59 PM
Waning Crescent, 3% visible
METAR KLMT 242253Z 28026G35KT 10SM -RA SCT050 SCT060 BKN120 09/03 A2984 RMK AO2 PK WND 28036/2156 RAB48 SLP097 P0000 T00890028
Pressure 29.82 in
Visibility 10.0 miles
Clouds Scattered Clouds 5000 ft
Scattered Clouds 6000 ft
Mostly Cloudy 12000 ft
Windchill 45 °F
Dew Point 41 °F
Humidity 79%
Rainfall Not available.
Snow Depth Not available.
6:12 AM 7:59 PM
Waning Crescent, 3% visible
METAR KLMT 242253Z 28026G35KT 10SM -RA SCT050 SCT060 BKN120 09/03 A2984 RMK AO2 PK WND 28036/2156 RAB48 SLP097 P0000 T00890028

Get Severe Weather Alerts

Thanks for signing up!

Be on the lookout for a verification email in your inbox.

You'll start receiving the daily forecast at 8 AM.

×

10-Day Weather Forecast

Almanac

Astronomy

Apr. 24, 2017 Rise Set
Actual Time
Civil Twilight
Nautical Twilight
Astronomical Twilight
Moon
Length of Visible Light
Length of Day
Tomorrow will be .
, % of the Moon is Illuminated

Today's Extremes

State Highs State Lows

Community

WunderPhotos

WunderBlog® & News

Nearby

Air Quality

  Air Quality AQ Index Pollutant
Not available.

Snow Depth

Station Depth Elevation

Earthquake Activity

City Distance Mag. Time & Date
Minimum magnitude displayed is 2.5.

Coastal Water Temperatures

Place Temperature

Stations

Nearby Weather Stations

Station Location Temp. Windchill Dew Point Humidity Wind Precip. Elev Updated Type
                   

Watches & Warnings

There are currently no watches in effect.